Pagina principale
METAR-TAF:

METAR-TAF

Aeroporti :

Abu Simbel, Egitto

latitudine: 22-22-33N, longitudine: 31-36-42E, altezza: 188 m

Osservazione

Il bollettino è stato emesso 38 minuti fa, alle 18:00 UTC
Vento 4 kt da nord
Temperature 20°C
Umidità 37%
Pressione 1014 hPa
Visibilità 10 km o più
nessuna nube inferiore a 1500 m e nessun cumulonembo

METAR: HEBL 101800Z 35004KT CAVOK 20/05 Q1014 NOSIG

Ora: 20:38 (18:38 UTC)

Previsione

Il bollettino è stato emesso 1 ora e 38 minuti fa, alle 17:00 UTC
Previsione valida dal 10 alle 18 UTC al 11 alle 24 UTC
Vento 8 kt da nord
Visibilità 10 km o più
nessuna nube inferiore a 1500 m e nessun cumulonembo

TAF: HEBL 101700Z 1018/1124 35008KT CAVOK

Osservazioni e previsioni meteorologiche di più di 4000 aeroporti (messaggi METAR e TAF).

Le stazioni disponibili sono rappresentate dai dischi gialli e rossi sulla carta.

Puntare il mouse per vedere il nome della stazione.

Clicca sopra per visualizzare le osservazioni e previsioni meteorologiche.

Per cambiare la mappa : fare clic sui pulsanti verdi con una croce nera per ingrandire, il pulsante verde con un trattino per diminuire, o sulla freccia verde per le mappe adiacenti.


METAR-TAF: